PAL2531 OMAA-RPLL
Flight info
| Callsign | PAL2531 |
|---|---|
| Flight time | N/A |
| Altitude | 35000 |
| Route | KANI4K KANIP N318 GEVED N881 RASKI L639 BPL A791 BEGUM/N0485F370 A791 CEA B465 CTG CEA B465 CTG A599 POU B330 TAMOT/N0478F390 B330 BIGEX POVAM NOPER V642 NOMAN A461 AVMUP W16 TADEL TADEL3R |
| Aircraft | A346/H-SDE2E3FGHIJ3J4J5M1RWXY/LB1D1 |
Departure
| Time | 2026-04-28 10:48 |
|---|---|
| Airport | Zayed International Airport (OMAA) |
Arrival
| Time | N/A |
|---|---|
| Airport | Ninoy Aquino International Airport (RPLL) |
| Time | Latitude | Longitude | Altitude | Speed | Heading |
|---|---|---|---|---|---|
| 2026-04-28 10:05 | 24.43196 | 54.64201 | 101 ft | 0 kts | 218° |
| 2026-04-28 10:32 | 24.43203 | 54.64207 | 101 ft | 0 kts | 218° |
| 2026-04-28 10:32 | 24.43215 | 54.64216 | 101 ft | 2 kts | 211° |
| 2026-04-28 10:32 | 24.43228 | 54.64223 | 101 ft | 2 kts | 198° |
| 2026-04-28 10:33 | 24.43243 | 54.64228 | 101 ft | 2 kts | 189° |
| 2026-04-28 10:33 | 24.43258 | 54.64229 | 101 ft | 2 kts | 179° |
| 2026-04-28 10:33 | 24.43272 | 54.64228 | 101 ft | 2 kts | 169° |
| 2026-04-28 10:33 | 24.43287 | 54.64223 | 101 ft | 2 kts | 159° |
| 2026-04-28 10:34 | 24.43301 | 54.64217 | 101 ft | 2 kts | 150° |
| 2026-04-28 10:34 | 24.43313 | 54.64207 | 101 ft | 2 kts | 140° |
| 2026-04-28 10:34 | 24.43323 | 54.64196 | 101 ft | 2 kts | 130° |
| 2026-04-28 10:34 | 24.43328 | 54.64190 | 101 ft | 0 kts | 127° |
| 2026-04-28 10:39 | 24.43323 | 54.64197 | 101 ft | 2 kts | 127° |
| 2026-04-28 10:39 | 24.43306 | 54.64222 | 101 ft | 5 kts | 122° |
| 2026-04-28 10:39 | 24.43292 | 54.64271 | 101 ft | 8 kts | 94° |
| 2026-04-28 10:39 | 24.43312 | 54.64336 | 101 ft | 10 kts | 50° |
| 2026-04-28 10:40 | 24.43381 | 54.64370 | 101 ft | 12 kts | 359° |
| 2026-04-28 10:40 | 24.43449 | 54.64334 | 101 ft | 9 kts | 309° |
| 2026-04-28 10:40 | 24.43453 | 54.64291 | 101 ft | 3 kts | 225° |
| 2026-04-28 10:40 | 24.43429 | 54.64282 | 101 ft | 3 kts | 186° |
| 2026-04-28 10:41 | 24.43404 | 54.64285 | 101 ft | 4 kts | 167° |
| 2026-04-28 10:41 | 24.43361 | 54.64308 | 101 ft | 9 kts | 143° |
| 2026-04-28 10:41 | 24.43309 | 54.64372 | 101 ft | 13 kts | 128° |
| 2026-04-28 10:41 | 24.43247 | 54.64459 | 101 ft | 15 kts | 128° |
| 2026-04-28 10:42 | 24.43180 | 54.64555 | 101 ft | 16 kts | 128° |
| 2026-04-28 10:42 | 24.43114 | 54.64648 | 101 ft | 17 kts | 128° |
| 2026-04-28 10:42 | 24.43039 | 54.64753 | 101 ft | 17 kts | 128° |
| 2026-04-28 10:42 | 24.42961 | 54.64864 | 101 ft | 18 kts | 128° |
| 2026-04-28 10:43 | 24.42882 | 54.64976 | 101 ft | 18 kts | 128° |
| 2026-04-28 10:43 | 24.42800 | 54.65092 | 101 ft | 19 kts | 128° |
| 2026-04-28 10:43 | 24.42717 | 54.65210 | 101 ft | 19 kts | 128° |
| 2026-04-28 10:43 | 24.42656 | 54.65305 | 101 ft | 10 kts | 99° |
| 2026-04-28 10:44 | 24.42674 | 54.65391 | 101 ft | 12 kts | 59° |
| 2026-04-28 10:44 | 24.42737 | 54.65460 | 101 ft | 13 kts | 62° |
| 2026-04-28 10:44 | 24.42717 | 54.65552 | 101 ft | 13 kts | 128° |
| 2026-04-28 10:44 | 24.42652 | 54.65639 | 101 ft | 15 kts | 132° |
| 2026-04-28 10:45 | 24.42579 | 54.65729 | 101 ft | 16 kts | 130° |
| 2026-04-28 10:45 | 24.42506 | 54.65828 | 101 ft | 17 kts | 128° |
| 2026-04-28 10:45 | 24.42431 | 54.65934 | 101 ft | 17 kts | 125° |
| 2026-04-28 10:45 | 24.42358 | 54.66046 | 101 ft | 18 kts | 126° |
| 2026-04-28 10:46 | 24.42278 | 54.66157 | 101 ft | 18 kts | 133° |
| 2026-04-28 10:46 | 24.42188 | 54.66261 | 101 ft | 17 kts | 124° |
| 2026-04-28 10:46 | 24.42124 | 54.66377 | 101 ft | 18 kts | 122° |
| 2026-04-28 10:46 | 24.42055 | 54.66495 | 101 ft | 18 kts | 109° |
| 2026-04-28 10:47 | 24.42079 | 54.66624 | 101 ft | 17 kts | 44° |
| 2026-04-28 10:47 | 24.42173 | 54.66689 | 101 ft | 11 kts | 354° |
| 2026-04-28 10:47 | 24.42236 | 54.66624 | 101 ft | 15 kts | 308° |
| 2026-04-28 10:47 | 24.42406 | 54.66382 | 101 ft | 73 kts | 308° |
| 2026-04-28 10:48 | 24.42857 | 54.65756 | 101 ft | 132 kts | 307° |
| 2026-04-28 10:48 | 24.43518 | 54.64809 | 159 ft | 170 kts | 307° |
| 2026-04-28 10:48 | 24.44279 | 54.63741 | 457 ft | 182 kts | 308° |
| 2026-04-28 10:48 | 24.45078 | 54.62653 | 906 ft | 188 kts | 309° |
| 2026-04-28 10:49 | 24.45925 | 54.61548 | 1420 ft | 195 kts | 311° |
| 2026-04-28 10:49 | 24.46828 | 54.60421 | 1984 ft | 199 kts | 312° |
| 2026-04-28 10:49 | 24.47751 | 54.59274 | 2506 ft | 204 kts | 308° |
| 2026-04-28 10:49 | 24.48595 | 54.57979 | 2802 ft | 216 kts | 305° |
| 2026-04-28 10:50 | 24.49488 | 54.56571 | 3129 ft | 229 kts | 306° |
| 2026-04-28 10:50 | 24.50420 | 54.55164 | 3767 ft | 229 kts | 307° |
| 2026-04-28 10:50 | 24.51364 | 54.53786 | 4436 ft | 227 kts | 307° |
| 2026-04-28 10:50 | 24.52326 | 54.52408 | 5031 ft | 229 kts | 308° |
| 2026-04-28 10:51 | 24.53307 | 54.51014 | 5624 ft | 232 kts | 308° |
| 2026-04-28 10:51 | 24.54332 | 54.49658 | 6158 ft | 237 kts | 321° |
| 2026-04-28 10:51 | 24.55855 | 54.48924 | 6446 ft | 251 kts | 359° |
| 2026-04-28 10:51 | 24.57570 | 54.49369 | 6750 ft | 265 kts | 34° |
| 2026-04-28 10:52 | 24.58768 | 54.50897 | 7250 ft | 271 kts | 70° |
| 2026-04-28 10:52 | 24.58960 | 54.52916 | 7864 ft | 272 kts | 104° |
| 2026-04-28 10:52 | 24.58177 | 54.54772 | 8488 ft | 273 kts | 122° |
| 2026-04-28 10:52 | 24.57178 | 54.56566 | 9107 ft | 276 kts | 121° |
| 2026-04-28 10:53 | 24.56199 | 54.58406 | 9706 ft | 280 kts | 120° |
| 2026-04-28 10:53 | 24.55233 | 54.60272 | 10306 ft | 282 kts | 120° |
| 2026-04-28 10:53 | 24.54265 | 54.62170 | 10719 ft | 292 kts | 119° |
| 2026-04-28 10:53 | 24.53252 | 54.64172 | 10986 ft | 307 kts | 119° |
| 2026-04-28 10:54 | 24.52204 | 54.66252 | 11256 ft | 322 kts | 119° |
| 2026-04-28 10:54 | 24.51097 | 54.68452 | 11534 ft | 337 kts | 119° |
| 2026-04-28 10:54 | 24.49938 | 54.70761 | 11808 ft | 353 kts | 119° |
| 2026-04-28 10:54 | 24.48731 | 54.73163 | 12090 ft | 367 kts | 119° |
| 2026-04-28 10:55 | 24.47483 | 54.75648 | 12590 ft | 374 kts | 119° |
| 2026-04-28 10:55 | 24.46232 | 54.78139 | 13236 ft | 376 kts | 119° |
| 2026-04-28 10:55 | 24.44961 | 54.80669 | 13861 ft | 379 kts | 119° |
| 2026-04-28 10:55 | 24.43693 | 54.83192 | 14444 ft | 383 kts | 119° |
| 2026-04-28 10:56 | 24.42401 | 54.85762 | 15022 ft | 386 kts | 119° |
| 2026-04-28 10:56 | 24.41091 | 54.88364 | 15591 ft | 390 kts | 119° |
| 2026-04-28 10:56 | 24.39782 | 54.90966 | 16146 ft | 393 kts | 119° |
| 2026-04-28 10:56 | 24.38468 | 54.93574 | 16687 ft | 396 kts | 119° |
| 2026-04-28 10:57 | 24.37130 | 54.96230 | 17224 ft | 400 kts | 119° |
| 2026-04-28 10:57 | 24.35782 | 54.98905 | 17750 ft | 403 kts | 119° |
| 2026-04-28 10:57 | 24.34421 | 55.01601 | 18326 ft | 404 kts | 119° |
| 2026-04-28 10:57 | 24.33055 | 55.04272 | 19184 ft | 397 kts | 119° |
| 2026-04-28 10:58 | 24.31737 | 55.06858 | 20050 ft | 382 kts | 119° |
| 2026-04-28 10:58 | 24.30468 | 55.09362 | 20923 ft | 374 kts | 119° |
| 2026-04-28 10:58 | 24.29233 | 55.11804 | 21788 ft | 365 kts | 119° |
| 2026-04-28 10:58 | 24.28029 | 55.14185 | 22655 ft | 354 kts | 119° |
| 2026-04-28 10:59 | 24.26858 | 55.16502 | 23525 ft | 341 kts | 119° |
| 2026-04-28 10:59 | 24.25714 | 55.18765 | 24016 ft | 341 kts | 119° |
| 2026-04-28 10:59 | 24.24562 | 55.21046 | 24330 ft | 346 kts | 119° |
| 2026-04-28 10:59 | 24.23390 | 55.23365 | 24499 ft | 355 kts | 119° |
| 2026-04-28 11:00 | 24.22183 | 55.25753 | 24670 ft | 363 kts | 119° |
| 2026-04-28 11:00 | 24.20941 | 55.28211 | 24843 ft | 372 kts | 119° |
| 2026-04-28 11:00 | 24.19677 | 55.30712 | 24981 ft | 382 kts | 119° |
| 2026-04-28 11:00 | 24.18378 | 55.33315 | 24988 ft | 396 kts | 117° |
| 2026-04-28 11:01 | 24.17167 | 55.36061 | 24993 ft | 409 kts | 114° |
| 2026-04-28 11:01 | 24.16031 | 55.38974 | 24994 ft | 423 kts | 112° |
| 2026-04-28 11:01 | 24.14876 | 55.41991 | 24996 ft | 435 kts | 112° |
| 2026-04-28 11:01 | 24.13688 | 55.45096 | 24995 ft | 447 kts | 112° |
| 2026-04-28 11:02 | 24.12490 | 55.48221 | 24991 ft | 451 kts | 112° |
| 2026-04-28 11:02 | 24.11261 | 55.51418 | 24990 ft | 451 kts | 112° |
| 2026-04-28 11:02 | 24.10050 | 55.54561 | 24990 ft | 452 kts | 112° |
| 2026-04-28 11:02 | 24.08840 | 55.57700 | 24990 ft | 452 kts | 112° |
| 2026-04-28 11:03 | 24.07609 | 55.60890 | 24990 ft | 452 kts | 112° |
| 2026-04-28 11:03 | 24.06355 | 55.64043 | 25134 ft | 456 kts | 115° |
| 2026-04-28 11:03 | 24.04954 | 55.67149 | 25575 ft | 457 kts | 117° |
| 2026-04-28 11:03 | 24.03495 | 55.70230 | 26001 ft | 458 kts | 117° |
| 2026-04-28 11:04 | 24.02014 | 55.73339 | 26353 ft | 461 kts | 117° |
| 2026-04-28 11:04 | 24.00540 | 55.76429 | 26688 ft | 464 kts | 117° |
| 2026-04-28 11:04 | 23.99047 | 55.79559 | 27026 ft | 466 kts | 117° |
| 2026-04-28 11:04 | 23.97537 | 55.82722 | 27361 ft | 469 kts | 117° |
| 2026-04-28 11:05 | 23.96025 | 55.85889 | 27689 ft | 471 kts | 117° |
| 2026-04-28 11:05 | 23.94518 | 55.89043 | 28007 ft | 474 kts | 117° |
| 2026-04-28 11:05 | 23.92980 | 55.92262 | 28329 ft | 476 kts | 117° |
| 2026-04-28 11:05 | 23.91455 | 55.95451 | 28738 ft | 476 kts | 117° |
| 2026-04-28 11:06 | 23.89916 | 55.98666 | 29203 ft | 474 kts | 117° |
| 2026-04-28 11:06 | 23.88393 | 56.01847 | 29649 ft | 473 kts | 117° |
| 2026-04-28 11:06 | 23.86876 | 56.05013 | 30066 ft | 473 kts | 117° |
| 2026-04-28 11:06 | 23.85349 | 56.08196 | 30467 ft | 472 kts | 117° |
| 2026-04-28 11:07 | 23.83825 | 56.11373 | 30860 ft | 471 kts | 117° |
| 2026-04-28 11:07 | 23.82306 | 56.14535 | 31244 ft | 471 kts | 117° |
| 2026-04-28 11:07 | 23.80808 | 56.17655 | 31616 ft | 470 kts | 117° |
| 2026-04-28 11:07 | 23.79289 | 56.20814 | 31983 ft | 470 kts | 117° |
| 2026-04-28 11:08 | 23.77773 | 56.23968 | 32341 ft | 469 kts | 117° |
| 2026-04-28 11:08 | 23.76246 | 56.27140 | 32691 ft | 469 kts | 117° |
| 2026-04-28 11:08 | 23.74736 | 56.30275 | 33028 ft | 468 kts | 117° |
| 2026-04-28 11:08 | 23.73228 | 56.33405 | 33343 ft | 468 kts | 117° |
| 2026-04-28 11:09 | 23.71711 | 56.36552 | 33609 ft | 469 kts | 117° |
| 2026-04-28 11:09 | 23.70205 | 56.39673 | 33840 ft | 470 kts | 117° |
| 2026-04-28 11:09 | 23.68672 | 56.42849 | 34066 ft | 471 kts | 117° |
| 2026-04-28 11:09 | 23.67161 | 56.45976 | 34285 ft | 473 kts | 117° |
| 2026-04-28 11:10 | 23.65617 | 56.49170 | 34504 ft | 473 kts | 117° |
| 2026-04-28 11:10 | 23.64072 | 56.52362 | 34713 ft | 474 kts | 117° |
| 2026-04-28 11:10 | 23.62542 | 56.55522 | 34908 ft | 475 kts | 117° |
| 2026-04-28 11:11 | 23.59447 | 56.61910 | 34982 ft | 477 kts | 117° |
| 2026-04-28 11:11 | 23.56344 | 56.68306 | 34985 ft | 477 kts | 118° |
| 2026-04-28 11:12 | 23.53263 | 56.74647 | 34986 ft | 477 kts | 118° |
| 2026-04-28 11:12 | 23.50161 | 56.81025 | 34986 ft | 477 kts | 118° |
| 2026-04-28 11:13 | 23.47044 | 56.87425 | 34986 ft | 477 kts | 118° |
| 2026-04-28 11:13 | 23.43946 | 56.93776 | 34986 ft | 477 kts | 118° |
| 2026-04-28 11:14 | 23.40829 | 57.00160 | 34986 ft | 477 kts | 118° |
| 2026-04-28 11:14 | 23.37787 | 57.06380 | 34986 ft | 477 kts | 118° |
| 2026-04-28 11:15 | 23.34809 | 57.12826 | 34986 ft | 477 kts | 116° |
| 2026-04-28 11:15 | 23.31911 | 57.19286 | 34986 ft | 477 kts | 116° |
| 2026-04-28 11:16 | 23.28986 | 57.25766 | 34986 ft | 477 kts | 116° |
| 2026-04-28 11:16 | 23.26045 | 57.32252 | 34986 ft | 477 kts | 116° |
| 2026-04-28 11:17 | 23.23112 | 57.38701 | 34986 ft | 477 kts | 116° |
| 2026-04-28 11:17 | 23.20176 | 57.45149 | 34986 ft | 477 kts | 116° |
| 2026-04-28 11:18 | 23.17227 | 57.51615 | 34986 ft | 477 kts | 116° |
| 2026-04-28 11:18 | 23.14301 | 57.58024 | 34986 ft | 477 kts | 116° |
| 2026-04-28 11:19 | 23.11352 | 57.64474 | 34986 ft | 477 kts | 116° |
| 2026-04-28 11:19 | 23.08385 | 57.70954 | 34986 ft | 477 kts | 116° |
| 2026-04-28 11:20 | 23.05511 | 57.77437 | 34985 ft | 477 kts | 113° |
| 2026-04-28 11:20 | 23.03355 | 57.84216 | 34985 ft | 477 kts | 105° |
| 2026-04-28 11:21 | 23.02101 | 57.91283 | 34986 ft | 477 kts | 96° |
| 2026-04-28 11:21 | 23.01762 | 57.98437 | 34986 ft | 477 kts | 90° |
| 2026-04-28 11:22 | 23.01777 | 58.05641 | 34986 ft | 477 kts | 90° |
| 2026-04-28 11:22 | 23.01794 | 58.12894 | 34986 ft | 477 kts | 90° |
| 2026-04-28 11:23 | 23.01796 | 58.20055 | 34986 ft | 477 kts | 90° |
| 2026-04-28 11:23 | 23.01790 | 58.27260 | 34986 ft | 477 kts | 90° |
| 2026-04-28 11:24 | 23.01780 | 58.34431 | 34986 ft | 477 kts | 90° |
| 2026-04-28 11:24 | 23.01906 | 58.41647 | 34986 ft | 477 kts | 88° |
| 2026-04-28 11:25 | 23.02153 | 58.48845 | 34986 ft | 477 kts | 88° |
| 2026-04-28 11:25 | 23.02398 | 58.56019 | 34986 ft | 477 kts | 88° |
| 2026-04-28 11:26 | 23.02637 | 58.63187 | 34986 ft | 477 kts | 88° |
| 2026-04-28 11:26 | 23.02874 | 58.70412 | 34986 ft | 477 kts | 88° |
| 2026-04-28 11:27 | 23.03105 | 58.77586 | 34986 ft | 477 kts | 88° |
| 2026-04-28 11:27 | 23.03335 | 58.84786 | 34986 ft | 477 kts | 88° |
| 2026-04-28 11:28 | 23.03561 | 58.91974 | 34986 ft | 477 kts | 88° |
| 2026-04-28 11:28 | 23.03784 | 58.99176 | 34986 ft | 477 kts | 88° |
| 2026-04-28 11:29 | 23.04000 | 59.06401 | 34986 ft | 477 kts | 88° |
| 2026-04-28 11:29 | 23.04210 | 59.13582 | 34986 ft | 477 kts | 88° |
| 2026-04-28 11:30 | 23.04418 | 59.20766 | 34986 ft | 477 kts | 88° |
| 2026-04-28 11:30 | 23.04727 | 59.31576 | 34986 ft | 477 kts | 88° |
| 2026-04-28 11:31 | 23.04921 | 59.38754 | 34986 ft | 477 kts | 89° |
| 2026-04-28 11:31 | 23.05037 | 59.45949 | 34986 ft | 477 kts | 89° |
| 2026-04-28 11:32 | 23.05140 | 59.53145 | 34986 ft | 477 kts | 89° |
| 2026-04-28 11:32 | 23.05246 | 59.60329 | 34986 ft | 477 kts | 89° |
| 2026-04-28 11:33 | 23.05351 | 59.67533 | 34986 ft | 477 kts | 89° |
| 2026-04-28 11:33 | 23.05455 | 59.74755 | 34986 ft | 477 kts | 89° |
| 2026-04-28 11:34 | 23.05555 | 59.81944 | 34986 ft | 477 kts | 89° |
| 2026-04-28 11:34 | 23.05651 | 59.89120 | 34986 ft | 477 kts | 89° |
| 2026-04-28 11:35 | 23.05742 | 59.96321 | 34986 ft | 478 kts | 89° |
| 2026-04-28 11:35 | 23.05830 | 60.03548 | 34986 ft | 478 kts | 89° |
| 2026-04-28 11:36 | 23.05916 | 60.10717 | 34986 ft | 478 kts | 89° |
| 2026-04-28 11:36 | 23.05998 | 60.17905 | 34986 ft | 478 kts | 89° |
| 2026-04-28 11:37 | 23.06077 | 60.25115 | 34986 ft | 478 kts | 89° |
| 2026-04-28 11:37 | 23.06153 | 60.32305 | 34986 ft | 478 kts | 89° |
| 2026-04-28 11:38 | 23.06226 | 60.39498 | 34986 ft | 478 kts | 89° |
| 2026-04-28 11:38 | 23.06296 | 60.46737 | 34986 ft | 478 kts | 89° |
| 2026-04-28 11:39 | 23.06362 | 60.53954 | 34986 ft | 478 kts | 89° |
| 2026-04-28 11:39 | 23.06425 | 60.61098 | 34986 ft | 478 kts | 89° |
| 2026-04-28 11:40 | 23.06484 | 60.68311 | 34986 ft | 478 kts | 90° |
| 2026-04-28 11:40 | 23.06540 | 60.75552 | 34986 ft | 478 kts | 90° |
| 2026-04-28 11:41 | 23.06594 | 60.82739 | 34986 ft | 478 kts | 90° |
| 2026-04-28 11:41 | 23.06645 | 60.89927 | 34986 ft | 478 kts | 90° |
| 2026-04-28 11:42 | 23.06692 | 60.97109 | 34986 ft | 478 kts | 90° |
| 2026-04-28 11:42 | 23.06737 | 61.04333 | 34986 ft | 478 kts | 90° |
| 2026-04-28 11:43 | 23.06779 | 61.11552 | 34986 ft | 478 kts | 90° |
| 2026-04-28 11:43 | 23.06817 | 61.18747 | 34986 ft | 478 kts | 90° |
| 2026-04-28 11:44 | 23.06852 | 61.25955 | 34986 ft | 478 kts | 90° |
| 2026-04-28 11:44 | 23.06884 | 61.33185 | 34986 ft | 478 kts | 90° |
| 2026-04-28 11:45 | 23.06913 | 61.40394 | 34986 ft | 478 kts | 90° |
| 2026-04-28 11:45 | 23.06938 | 61.47661 | 34986 ft | 478 kts | 90° |
| 2026-04-28 11:46 | 23.06958 | 61.54938 | 34986 ft | 478 kts | 90° |
| 2026-04-28 11:46 | 23.06975 | 61.62228 | 34986 ft | 478 kts | 90° |
| 2026-04-28 11:47 | 23.06988 | 61.69452 | 34986 ft | 478 kts | 90° |
| 2026-04-28 11:47 | 23.06997 | 61.76746 | 34986 ft | 478 kts | 90° |
| 2026-04-28 11:48 | 23.07001 | 61.83967 | 34986 ft | 478 kts | 90° |
| 2026-04-28 11:48 | 23.07003 | 61.91231 | 34986 ft | 478 kts | 90° |
| 2026-04-28 11:49 | 23.07002 | 61.98534 | 34986 ft | 478 kts | 90° |
| 2026-04-28 11:49 | 23.06997 | 62.05774 | 34986 ft | 478 kts | 90° |
| 2026-04-28 11:50 | 23.06990 | 62.13031 | 34986 ft | 478 kts | 90° |
| 2026-04-28 11:50 | 23.06979 | 62.20333 | 34986 ft | 478 kts | 90° |
| 2026-04-28 11:51 | 23.06965 | 62.27534 | 34986 ft | 478 kts | 90° |
| 2026-04-28 11:51 | 23.06948 | 62.34827 | 34986 ft | 478 kts | 90° |
| 2026-04-28 11:52 | 23.06927 | 62.42170 | 34986 ft | 478 kts | 90° |
| 2026-04-28 11:52 | 23.06902 | 62.49472 | 34986 ft | 478 kts | 90° |
| 2026-04-28 11:53 | 23.06875 | 62.56768 | 34986 ft | 478 kts | 90° |
| 2026-04-28 11:53 | 23.06844 | 62.64041 | 34986 ft | 478 kts | 90° |
| 2026-04-28 11:54 | 23.06810 | 62.71324 | 34986 ft | 478 kts | 90° |
| 2026-04-28 11:54 | 23.06772 | 62.78579 | 34986 ft | 478 kts | 90° |
| 2026-04-28 11:55 | 23.06732 | 62.85769 | 34986 ft | 478 kts | 90° |
| 2026-04-28 11:55 | 23.06688 | 62.93013 | 34986 ft | 478 kts | 90° |
| 2026-04-28 11:56 | 23.06641 | 63.00194 | 34986 ft | 478 kts | 90° |
| 2026-04-28 11:56 | 23.06591 | 63.07402 | 34986 ft | 478 kts | 90° |
| 2026-04-28 11:57 | 23.06538 | 63.14619 | 34986 ft | 478 kts | 90° |
| 2026-04-28 11:57 | 23.06481 | 63.21794 | 34986 ft | 478 kts | 90° |
| 2026-04-28 11:58 | 23.06422 | 63.28994 | 34986 ft | 478 kts | 90° |
| 2026-04-28 11:58 | 23.06358 | 63.36194 | 34986 ft | 478 kts | 90° |
| 2026-04-28 11:59 | 23.06293 | 63.43311 | 34986 ft | 478 kts | 90° |
| 2026-04-28 11:59 | 23.06224 | 63.50477 | 34986 ft | 478 kts | 90° |
| 2026-04-28 12:00 | 23.06152 | 63.57671 | 34986 ft | 478 kts | 90° |
| 2026-04-28 12:00 | 23.06076 | 63.64908 | 34986 ft | 478 kts | 90° |
| 2026-04-28 12:01 | 23.05997 | 63.72076 | 34986 ft | 478 kts | 91° |
| 2026-04-28 12:01 | 23.05915 | 63.79272 | 34986 ft | 478 kts | 91° |
| 2026-04-28 12:02 | 23.05763 | 63.86489 | 34986 ft | 478 kts | 94° |
| 2026-04-28 12:02 | 23.05132 | 63.93661 | 34986 ft | 478 kts | 96° |
| 2026-04-28 12:03 | 23.04397 | 64.00834 | 34986 ft | 478 kts | 96° |
| 2026-04-28 12:03 | 23.03658 | 64.08031 | 34986 ft | 478 kts | 96° |
| 2026-04-28 12:04 | 23.02925 | 64.15166 | 34986 ft | 478 kts | 96° |
| 2026-04-28 12:04 | 23.02188 | 64.22321 | 34986 ft | 478 kts | 96° |
| 2026-04-28 12:05 | 23.01448 | 64.29470 | 34986 ft | 478 kts | 96° |
| 2026-04-28 12:05 | 23.00707 | 64.36604 | 34986 ft | 478 kts | 96° |
| 2026-04-28 12:06 | 22.99955 | 64.43815 | 34986 ft | 478 kts | 96° |
| 2026-04-28 12:06 | 22.99206 | 64.50964 | 34986 ft | 478 kts | 96° |
| 2026-04-28 12:07 | 22.98479 | 64.57870 | 34986 ft | 478 kts | 96° |
| 2026-04-28 12:07 | 22.97718 | 64.65076 | 34986 ft | 478 kts | 97° |
| 2026-04-28 12:08 | 22.96963 | 64.72186 | 34986 ft | 478 kts | 97° |
| 2026-04-28 12:08 | 22.96204 | 64.79300 | 34985 ft | 478 kts | 96° |
| 2026-04-28 12:09 | 22.95793 | 64.86458 | 34985 ft | 478 kts | 90° |
| 2026-04-28 12:09 | 22.95819 | 64.93652 | 34986 ft | 478 kts | 89° |
| 2026-04-28 12:10 | 22.95869 | 65.00882 | 34986 ft | 478 kts | 89° |
| 2026-04-28 12:10 | 22.95913 | 65.08070 | 34986 ft | 478 kts | 89° |
| 2026-04-28 12:11 | 22.95950 | 65.15256 | 34986 ft | 478 kts | 90° |
| 2026-04-28 12:11 | 22.95983 | 65.22439 | 34986 ft | 478 kts | 90° |
| 2026-04-28 12:12 | 22.96012 | 65.29678 | 34986 ft | 478 kts | 90° |
| 2026-04-28 12:12 | 22.96037 | 65.36852 | 34986 ft | 478 kts | 90° |
| 2026-04-28 12:13 | 22.96060 | 65.44044 | 34986 ft | 478 kts | 90° |
| 2026-04-28 12:13 | 22.96079 | 65.51263 | 34986 ft | 478 kts | 90° |
| 2026-04-28 12:14 | 22.96094 | 65.58199 | 34986 ft | 478 kts | 90° |
| 2026-04-28 12:14 | 22.96107 | 65.65402 | 34986 ft | 478 kts | 90° |
| 2026-04-28 12:15 | 22.96116 | 65.72623 | 34986 ft | 478 kts | 90° |
| 2026-04-28 12:15 | 22.96122 | 65.79843 | 34986 ft | 478 kts | 90° |
| 2026-04-28 12:16 | 22.96125 | 65.87020 | 34986 ft | 478 kts | 90° |
| 2026-04-28 12:16 | 22.96125 | 65.94199 | 34986 ft | 478 kts | 90° |
| 2026-04-28 12:17 | 22.96121 | 66.01432 | 34986 ft | 478 kts | 90° |
| 2026-04-28 12:17 | 22.96115 | 66.08612 | 34986 ft | 478 kts | 90° |
| 2026-04-28 12:18 | 22.96105 | 66.15805 | 34986 ft | 478 kts | 90° |
| 2026-04-28 12:18 | 22.96092 | 66.22995 | 34986 ft | 478 kts | 90° |
| 2026-04-28 12:19 | 22.96075 | 66.30222 | 34986 ft | 478 kts | 90° |
| 2026-04-28 12:19 | 22.96055 | 66.37443 | 34986 ft | 478 kts | 90° |
| 2026-04-28 12:20 | 22.96033 | 66.44637 | 34986 ft | 478 kts | 90° |
| 2026-04-28 12:20 | 22.96007 | 66.51818 | 34986 ft | 478 kts | 90° |
| 2026-04-28 12:21 | 22.95977 | 66.59003 | 34986 ft | 478 kts | 90° |
| 2026-04-28 12:21 | 22.95945 | 66.66232 | 34986 ft | 478 kts | 90° |
| 2026-04-28 12:22 | 22.95909 | 66.73402 | 34986 ft | 478 kts | 90° |
| 2026-04-28 12:22 | 22.95869 | 66.80642 | 34986 ft | 478 kts | 90° |
| 2026-04-28 12:23 | 22.95828 | 66.87823 | 34986 ft | 478 kts | 90° |
| 2026-04-28 12:23 | 22.95782 | 66.95004 | 34986 ft | 478 kts | 90° |
| 2026-04-28 12:24 | 22.95774 | 67.02251 | 34986 ft | 478 kts | 90° |
| 2026-04-28 12:24 | 22.95797 | 67.09422 | 34986 ft | 478 kts | 90° |
| 2026-04-28 12:25 | 22.95814 | 67.16625 | 34986 ft | 478 kts | 90° |
| 2026-04-28 12:25 | 22.95825 | 67.23835 | 34986 ft | 478 kts | 90° |
| 2026-04-28 12:26 | 22.95832 | 67.31049 | 34986 ft | 478 kts | 90° |
| 2026-04-28 12:26 | 22.95836 | 67.38243 | 34986 ft | 478 kts | 90° |
| 2026-04-28 12:27 | 22.95836 | 67.45417 | 34986 ft | 478 kts | 90° |
| 2026-04-28 12:27 | 22.95833 | 67.52625 | 34986 ft | 478 kts | 90° |
| 2026-04-28 12:28 | 22.95827 | 67.59834 | 34986 ft | 478 kts | 90° |
| 2026-04-28 12:28 | 22.95817 | 67.67046 | 34986 ft | 478 kts | 90° |
| 2026-04-28 12:29 | 22.95797 | 67.77852 | 34986 ft | 478 kts | 90° |
| 2026-04-28 12:30 | 22.95779 | 67.85072 | 34986 ft | 478 kts | 90° |
| 2026-04-28 12:30 | 22.95773 | 67.92269 | 34986 ft | 478 kts | 90° |
| 2026-04-28 12:31 | 22.95783 | 67.99448 | 34986 ft | 478 kts | 90° |
| 2026-04-28 12:31 | 22.95790 | 68.06663 | 34986 ft | 478 kts | 90° |
| 2026-04-28 12:32 | 22.95791 | 68.13883 | 34986 ft | 478 kts | 90° |
| 2026-04-28 12:32 | 22.95790 | 68.21100 | 34986 ft | 478 kts | 90° |
| 2026-04-28 12:33 | 22.95785 | 68.28284 | 34986 ft | 478 kts | 90° |
| 2026-04-28 12:34 | 22.95475 | 68.43233 | 34986 ft | 478 kts | 93° |
| 2026-04-28 12:34 | 22.95056 | 68.50448 | 34986 ft | 478 kts | 93° |
| 2026-04-28 12:35 | 22.94637 | 68.57617 | 34986 ft | 478 kts | 93° |
| 2026-04-28 12:35 | 22.94216 | 68.64831 | 34986 ft | 478 kts | 93° |
| 2026-04-28 12:36 | 22.93792 | 68.72051 | 34986 ft | 478 kts | 94° |
| 2026-04-28 12:36 | 22.93368 | 68.79224 | 34985 ft | 478 kts | 94° |
| 2026-04-28 12:37 | 22.92940 | 68.86407 | 34986 ft | 478 kts | 94° |
| 2026-04-28 12:37 | 22.92510 | 68.93594 | 34986 ft | 478 kts | 94° |
| 2026-04-28 12:38 | 22.92077 | 69.00761 | 34986 ft | 478 kts | 94° |
| 2026-04-28 12:38 | 22.91636 | 69.08000 | 34986 ft | 478 kts | 94° |
| 2026-04-28 12:39 | 22.91194 | 69.15217 | 34986 ft | 478 kts | 94° |
| 2026-04-28 12:39 | 22.90748 | 69.22446 | 34986 ft | 478 kts | 94° |
| 2026-04-28 12:40 | 22.90297 | 69.29693 | 34986 ft | 478 kts | 94° |
| 2026-04-28 12:40 | 22.89849 | 69.36850 | 34986 ft | 478 kts | 94° |
| 2026-04-28 12:41 | 22.89393 | 69.44071 | 34986 ft | 478 kts | 94° |
| 2026-04-28 12:41 | 22.88938 | 69.51235 | 34985 ft | 478 kts | 94° |
| 2026-04-28 12:42 | 22.88476 | 69.58455 | 34985 ft | 478 kts | 94° |
| 2026-04-28 12:42 | 22.88015 | 69.65616 | 34985 ft | 478 kts | 94° |
| 2026-04-28 12:43 | 22.87557 | 69.72807 | 34986 ft | 478 kts | 94° |
| 2026-04-28 12:43 | 22.87144 | 69.79978 | 34986 ft | 478 kts | 94° |
| 2026-04-28 12:44 | 22.86727 | 69.87225 | 34986 ft | 478 kts | 94° |
| 2026-04-28 12:44 | 22.86306 | 69.94432 | 34986 ft | 478 kts | 94° |
| 2026-04-28 12:45 | 22.85883 | 70.01614 | 34986 ft | 478 kts | 94° |
| 2026-04-28 12:45 | 22.85454 | 70.08807 | 34986 ft | 478 kts | 94° |
| 2026-04-28 12:46 | 22.85024 | 70.15982 | 34986 ft | 478 kts | 94° |
| 2026-04-28 12:46 | 22.84588 | 70.23190 | 34986 ft | 478 kts | 94° |
| 2026-04-28 12:47 | 22.84151 | 70.30377 | 34986 ft | 478 kts | 94° |
| 2026-04-28 12:47 | 22.83712 | 70.37531 | 34986 ft | 478 kts | 94° |
| 2026-04-28 12:48 | 22.83266 | 70.44755 | 34985 ft | 478 kts | 94° |
| 2026-04-28 12:48 | 22.82822 | 70.51901 | 34985 ft | 478 kts | 94° |
| 2026-04-28 12:49 | 22.82370 | 70.59103 | 34985 ft | 479 kts | 94° |
| 2026-04-28 12:49 | 22.81918 | 70.66277 | 34985 ft | 479 kts | 94° |
| 2026-04-28 12:50 | 22.81462 | 70.73442 | 34986 ft | 479 kts | 94° |
| 2026-04-28 12:50 | 22.81178 | 70.80677 | 34986 ft | 479 kts | 89° |
| 2026-04-28 12:51 | 22.81563 | 70.87852 | 34986 ft | 479 kts | 83° |
| 2026-04-28 12:51 | 22.82547 | 70.94974 | 34986 ft | 479 kts | 81° |
| 2026-04-28 12:52 | 22.83623 | 71.02074 | 34986 ft | 479 kts | 81° |
| 2026-04-28 12:52 | 22.84692 | 71.09172 | 34986 ft | 479 kts | 81° |
| 2026-04-28 12:53 | 22.85755 | 71.16283 | 34986 ft | 479 kts | 81° |
| 2026-04-28 12:53 | 22.86639 | 71.22227 | 34986 ft | 479 kts | 81° |
| 2026-04-28 12:54 | 22.87866 | 71.30509 | 34986 ft | 479 kts | 81° |
| 2026-04-28 12:54 | 22.88916 | 71.37624 | 34985 ft | 479 kts | 81° |
| 2026-04-28 12:55 | 22.89966 | 71.44762 | 34985 ft | 479 kts | 81° |
| 2026-04-28 12:55 | 22.91008 | 71.51868 | 34985 ft | 479 kts | 81° |
| 2026-04-28 12:56 | 22.91914 | 71.59013 | 34986 ft | 479 kts | 84° |
| 2026-04-28 12:56 | 22.92463 | 71.66180 | 34985 ft | 479 kts | 85° |
| 2026-04-28 12:57 | 22.93002 | 71.73350 | 34986 ft | 479 kts | 85° |
| 2026-04-28 12:57 | 22.93567 | 71.80571 | 34986 ft | 479 kts | 85° |
| 2026-04-28 12:58 | 22.94039 | 71.86513 | 34986 ft | 479 kts | 85° |
| 2026-04-28 12:58 | 22.94705 | 71.94901 | 34986 ft | 479 kts | 85° |
| 2026-04-28 12:59 | 22.95273 | 72.02070 | 34986 ft | 479 kts | 85° |
| 2026-04-28 12:59 | 22.95833 | 72.09172 | 34986 ft | 479 kts | 85° |
| 2026-04-28 13:00 | 22.96394 | 72.16328 | 34986 ft | 479 kts | 85° |
| 2026-04-28 13:00 | 22.96859 | 72.22295 | 34986 ft | 479 kts | 85° |
| 2026-04-28 13:01 | 22.97510 | 72.30690 | 34985 ft | 479 kts | 85° |
| 2026-04-28 13:01 | 22.98062 | 72.37866 | 34985 ft | 479 kts | 85° |
| 2026-04-28 13:02 | 22.98615 | 72.45085 | 34985 ft | 479 kts | 85° |
| 2026-04-28 13:02 | 22.99159 | 72.52235 | 34985 ft | 479 kts | 85° |
| 2026-04-28 13:03 | 23.00194 | 72.65955 | 34985 ft | 479 kts | 85° |
| 2026-04-28 13:04 | 23.00732 | 72.73147 | 34986 ft | 479 kts | 85° |
| 2026-04-28 13:04 | 23.01263 | 72.80296 | 34986 ft | 479 kts | 85° |
| 2026-04-28 13:05 | 23.01621 | 72.85129 | 34986 ft | 479 kts | 85° |